sensor_id;sensor_type;location;lat;lon;timestamp;temperature;humidity
25342;DHT22;13298;48.792;9.154;2022-12-08T00:00:12;1.30;99.90
25342;DHT22;13298;48.792;9.154;2022-12-08T00:02:37;1.40;99.90
25342;DHT22;13298;48.792;9.154;2022-12-08T00:05:03;1.40;99.90
25342;DHT22;13298;48.792;9.154;2022-12-08T00:07:47;1.40;99.90
25342;DHT22;13298;48.792;9.154;2022-12-08T00:10:31;1.50;99.90
25342;DHT22;13298;48.792;9.154;2022-12-08T00:12:57;1.50;99.90
25342;DHT22;13298;48.792;9.154;2022-12-08T00:15:22;1.50;99.90
25342;DHT22;13298;48.792;9.154;2022-12-08T00:17:48;1.50;99.90
25342;DHT22;13298;48.792;9.154;2022-12-08T00:20:14;1.50;99.90
25342;DHT22;13298;48.792;9.154;2022-12-08T00:22:39;1.50;99.90
25342;DHT22;13298;48.792;9.154;2022-12-08T00:25:05;1.50;99.90
25342;DHT22;13298;48.792;9.154;2022-12-08T00:27:31;1.50;99.90
25342;DHT22;13298;48.792;9.154;2022-12-08T00:29:56;1.40;99.90
25342;DHT22;13298;48.792;9.154;2022-12-08T00:32:22;1.30;99.90
25342;DHT22;13298;48.792;9.154;2022-12-08T00:34:48;1.20;99.90
25342;DHT22;13298;48.792;9.154;2022-12-08T00:37:13;1.00;99.90
25342;DHT22;13298;48.792;9.154;2022-12-08T00:39:39;0.80;99.90
25342;DHT22;13298;48.792;9.154;2022-12-08T00:42:04;0.60;99.90
25342;DHT22;13298;48.792;9.154;2022-12-08T00:44:36;0.50;99.90
25342;DHT22;13298;48.792;9.154;2022-12-08T00:47:02;0.40;99.90
25342;DHT22;13298;48.792;9.154;2022-12-08T00:49:28;0.30;99.90
25342;DHT22;13298;48.792;9.154;2022-12-08T00:51:53;0.20;99.90
25342;DHT22;13298;48.792;9.154;2022-12-08T00:54:19;0.10;99.90
25342;DHT22;13298;48.792;9.154;2022-12-08T00:56:47;0.10;99.90
25342;DHT22;13298;48.792;9.154;2022-12-08T00:59:13;0.00;99.90
25342;DHT22;13298;48.792;9.154;2022-12-08T01:01:39;-0.10;99.90
25342;DHT22;13298;48.792;9.154;2022-12-08T01:04:05;-0.20;99.90
25342;DHT22;13298;48.792;9.154;2022-12-08T01:06:35;-0.20;99.90
25342;DHT22;13298;48.792;9.154;2022-12-08T01:09:02;-0.30;99.90
25342;DHT22;13298;48.792;9.154;2022-12-08T01:11:28;-0.30;99.90
25342;DHT22;13298;48.792;9.154;2022-12-08T01:13:53;-0.40;99.90
25342;DHT22;13298;48.792;9.154;2022-12-08T01:16:20;-0.40;99.90
25342;DHT22;13298;48.792;9.154;2022-12-08T01:18:46;-0.50;99.90
25342;DHT22;13298;48.792;9.154;2022-12-08T01:21:12;-0.50;99.90
25342;DHT22;13298;48.792;9.154;2022-12-08T01:23:38;-0.50;99.90
25342;DHT22;13298;48.792;9.154;2022-12-08T01:26:04;-0.60;99.90
25342;DHT22;13298;48.792;9.154;2022-12-08T01:28:31;-0.50;99.90
25342;DHT22;13298;48.792;9.154;2022-12-08T01:30:57;-0.50;99.90
25342;DHT22;13298;48.792;9.154;2022-12-08T01:33:23;-0.60;99.90
25342;DHT22;13298;48.792;9.154;2022-12-08T01:35:49;-0.60;99.90
25342;DHT22;13298;48.792;9.154;2022-12-08T01:38:15;-0.60;99.90
25342;DHT22;13298;48.792;9.154;2022-12-08T01:40:40;-0.50;99.90
25342;DHT22;13298;48.792;9.154;2022-12-08T01:43:08;-0.60;99.90
25342;DHT22;13298;48.792;9.154;2022-12-08T01:45:37;-0.70;99.90
25342;DHT22;13298;48.792;9.154;2022-12-08T01:48:04;-0.70;99.90
25342;DHT22;13298;48.792;9.154;2022-12-08T01:50:32;-0.70;99.90
25342;DHT22;13298;48.792;9.154;2022-12-08T01:53:05;-0.70;99.90
25342;DHT22;13298;48.792;9.154;2022-12-08T01:55:35;-0.80;99.90
25342;DHT22;13298;48.792;9.154;2022-12-08T01:58:05;-0.80;99.90
25342;DHT22;13298;48.792;9.154;2022-12-08T02:00:36;-0.80;99.90
25342;DHT22;13298;48.792;9.154;2022-12-08T02:03:03;-0.90;99.90
25342;DHT22;13298;48.792;9.154;2022-12-08T02:05:36;-0.90;99.90
25342;DHT22;13298;48.792;9.154;2022-12-08T02:08:03;-0.90;99.90
25342;DHT22;13298;48.792;9.154;2022-12-08T02:10:32;-0.90;99.90
25342;DHT22;13298;48.792;9.154;2022-12-08T02:13:00;-0.90;99.90
25342;DHT22;13298;48.792;9.154;2022-12-08T02:23:52;-0.90;99.90
25342;DHT22;13298;48.792;9.154;2022-12-08T02:32:03;-0.90;99.90
25342;DHT22;13298;48.792;9.154;2022-12-08T02:38:14;-0.90;99.90
25342;DHT22;13298;48.792;9.154;2022-12-08T02:40:49;-0.90;99.90
25342;DHT22;13298;48.792;9.154;2022-12-08T02:43:28;-1.00;99.90
25342;DHT22;13298;48.792;9.154;2022-12-08T02:46:10;-1.00;99.90
25342;DHT22;13298;48.792;9.154;2022-12-08T02:48:38;-0.90;99.90
25342;DHT22;13298;48.792;9.154;2022-12-08T02:51:04;-1.00;99.90
25342;DHT22;13298;48.792;9.154;2022-12-08T02:53:30;-1.00;99.90
25342;DHT22;13298;48.792;9.154;2022-12-08T02:58:31;-1.00;99.90
25342;DHT22;13298;48.792;9.154;2022-12-08T03:06:31;-1.00;99.90
25342;DHT22;13298;48.792;9.154;2022-12-08T03:09:12;-1.10;99.90
25342;DHT22;13298;48.792;9.154;2022-12-08T03:14:16;-1.10;99.90
25342;DHT22;13298;48.792;9.154;2022-12-08T03:16:42;-1.10;99.90
25342;DHT22;13298;48.792;9.154;2022-12-08T03:19:21;-1.10;99.90
25342;DHT22;13298;48.792;9.154;2022-12-08T03:21:57;-1.10;99.90
25342;DHT22;13298;48.792;9.154;2022-12-08T03:24:29;-1.10;99.90
25342;DHT22;13298;48.792;9.154;2022-12-08T03:26:56;-1.10;99.90
25342;DHT22;13298;48.792;9.154;2022-12-08T03:29:26;-1.10;99.90
25342;DHT22;13298;48.792;9.154;2022-12-08T03:31:53;-1.10;99.90
25342;DHT22;13298;48.792;9.154;2022-12-08T03:34:21;-1.10;99.90
25342;DHT22;13298;48.792;9.154;2022-12-08T03:36:49;-1.20;99.90
25342;DHT22;13298;48.792;9.154;2022-12-08T03:39:14;-1.20;99.90
25342;DHT22;13298;48.792;9.154;2022-12-08T03:41:40;-1.20;99.90
25342;DHT22;13298;48.792;9.154;2022-12-08T03:44:06;-1.20;99.90
25342;DHT22;13298;48.792;9.154;2022-12-08T03:46:31;-1.30;99.90
25342;DHT22;13298;48.792;9.154;2022-12-08T03:48:57;-1.30;99.90
25342;DHT22;13298;48.792;9.154;2022-12-08T03:51:23;-1.30;99.90
25342;DHT22;13298;48.792;9.154;2022-12-08T03:53:49;-1.30;99.90
25342;DHT22;13298;48.792;9.154;2022-12-08T03:56:28;-1.30;99.90
25342;DHT22;13298;48.792;9.154;2022-12-08T03:58:55;-1.30;99.90
25342;DHT22;13298;48.792;9.154;2022-12-08T04:01:21;-1.30;99.90
25342;DHT22;13298;48.792;9.154;2022-12-08T04:03:47;-1.40;99.90
25342;DHT22;13298;48.792;9.154;2022-12-08T04:06:13;-1.40;99.90
25342;DHT22;13298;48.792;9.154;2022-12-08T04:08:38;-1.40;99.90
25342;DHT22;13298;48.792;9.154;2022-12-08T04:11:04;-1.30;99.90
25342;DHT22;13298;48.792;9.154;2022-12-08T04:13:33;-1.40;99.90
25342;DHT22;13298;48.792;9.154;2022-12-08T04:15:59;-1.40;99.90
25342;DHT22;13298;48.792;9.154;2022-12-08T04:18:25;-1.40;99.90
25342;DHT22;13298;48.792;9.154;2022-12-08T04:20:51;-1.40;99.90
25342;DHT22;13298;48.792;9.154;2022-12-08T04:23:17;-1.40;99.90
25342;DHT22;13298;48.792;9.154;2022-12-08T04:25:42;-1.40;99.90
25342;DHT22;13298;48.792;9.154;2022-12-08T04:28:08;-1.40;99.90
25342;DHT22;13298;48.792;9.154;2022-12-08T04:30:34;-1.40;99.90
25342;DHT22;13298;48.792;9.154;2022-12-08T04:32:59;-1.50;99.90
25342;DHT22;13298;48.792;9.154;2022-12-08T04:35:25;-1.50;99.90
25342;DHT22;13298;48.792;9.154;2022-12-08T04:37:51;-1.50;99.90
25342;DHT22;13298;48.792;9.154;2022-12-08T04:40:17;-1.50;99.90
25342;DHT22;13298;48.792;9.154;2022-12-08T04:42:43;-1.50;99.90
25342;DHT22;13298;48.792;9.154;2022-12-08T04:45:09;-1.50;99.90
25342;DHT22;13298;48.792;9.154;2022-12-08T04:47:34;-1.50;99.90
25342;DHT22;13298;48.792;9.154;2022-12-08T04:50:00;-1.50;99.90
25342;DHT22;13298;48.792;9.154;2022-12-08T04:52:26;-1.50;99.90
25342;DHT22;13298;48.792;9.154;2022-12-08T04:54:51;-1.50;99.90
25342;DHT22;13298;48.792;9.154;2022-12-08T04:57:17;-1.50;99.90
25342;DHT22;13298;48.792;9.154;2022-12-08T04:59:43;-1.50;99.90
25342;DHT22;13298;48.792;9.154;2022-12-08T05:02:08;-1.50;99.90
25342;DHT22;13298;48.792;9.154;2022-12-08T05:04:34;-1.50;99.90
25342;DHT22;13298;48.792;9.154;2022-12-08T05:06:59;-1.50;99.90
25342;DHT22;13298;48.792;9.154;2022-12-08T05:09:25;-1.60;99.90
25342;DHT22;13298;48.792;9.154;2022-12-08T05:11:51;-1.60;99.90
25342;DHT22;13298;48.792;9.154;2022-12-08T05:14:17;-1.60;99.90
25342;DHT22;13298;48.792;9.154;2022-12-08T05:16:43;-1.60;99.90
25342;DHT22;13298;48.792;9.154;2022-12-08T05:19:09;-1.60;99.90
25342;DHT22;13298;48.792;9.154;2022-12-08T05:21:34;-1.60;99.90
25342;DHT22;13298;48.792;9.154;2022-12-08T05:24:00;-1.60;99.90
25342;DHT22;13298;48.792;9.154;2022-12-08T05:26:26;-1.60;99.90
25342;DHT22;13298;48.792;9.154;2022-12-08T05:28:51;-1.60;99.90
25342;DHT22;13298;48.792;9.154;2022-12-08T05:31:17;-1.60;99.90
25342;DHT22;13298;48.792;9.154;2022-12-08T05:33:43;-1.70;99.90
25342;DHT22;13298;48.792;9.154;2022-12-08T05:36:11;-1.70;99.90
25342;DHT22;13298;48.792;9.154;2022-12-08T05:38:38;-1.60;99.90
25342;DHT22;13298;48.792;9.154;2022-12-08T05:41:07;-1.70;99.90
25342;DHT22;13298;48.792;9.154;2022-12-08T05:43:43;-1.60;99.90
25342;DHT22;13298;48.792;9.154;2022-12-08T05:46:09;-1.60;99.90
25342;DHT22;13298;48.792;9.154;2022-12-08T05:48:35;-1.60;99.90
25342;DHT22;13298;48.792;9.154;2022-12-08T05:51:01;-1.60;99.90
25342;DHT22;13298;48.792;9.154;2022-12-08T05:53:27;-1.60;99.90
25342;DHT22;13298;48.792;9.154;2022-12-08T05:55:52;-1.60;99.90
25342;DHT22;13298;48.792;9.154;2022-12-08T05:58:20;-1.60;99.90
25342;DHT22;13298;48.792;9.154;2022-12-08T06:00:46;-1.60;99.90
25342;DHT22;13298;48.792;9.154;2022-12-08T06:03:13;-1.60;99.90
25342;DHT22;13298;48.792;9.154;2022-12-08T06:05:40;-1.60;99.90
25342;DHT22;13298;48.792;9.154;2022-12-08T06:08:07;-1.60;99.90
25342;DHT22;13298;48.792;9.154;2022-12-08T06:10:33;-1.60;99.90
25342;DHT22;13298;48.792;9.154;2022-12-08T06:12:58;-1.60;99.90
25342;DHT22;13298;48.792;9.154;2022-12-08T06:15:24;-1.60;99.90
25342;DHT22;13298;48.792;9.154;2022-12-08T06:17:50;-1.70;99.90
25342;DHT22;13298;48.792;9.154;2022-12-08T06:20:16;-1.60;99.90
25342;DHT22;13298;48.792;9.154;2022-12-08T06:22:41;-1.60;99.90
25342;DHT22;13298;48.792;9.154;2022-12-08T06:25:07;-1.60;99.90
25342;DHT22;13298;48.792;9.154;2022-12-08T06:27:34;-1.70;99.90
25342;DHT22;13298;48.792;9.154;2022-12-08T06:30:00;-1.70;99.90
25342;DHT22;13298;48.792;9.154;2022-12-08T06:32:25;-1.70;99.90
25342;DHT22;13298;48.792;9.154;2022-12-08T06:34:51;-1.60;99.90
25342;DHT22;13298;48.792;9.154;2022-12-08T06:37:17;-1.60;99.90
25342;DHT22;13298;48.792;9.154;2022-12-08T06:39:43;-1.60;99.90
25342;DHT22;13298;48.792;9.154;2022-12-08T06:42:08;-1.60;99.90
25342;DHT22;13298;48.792;9.154;2022-12-08T06:44:53;-1.60;99.90
25342;DHT22;13298;48.792;9.154;2022-12-08T06:47:22;-1.60;99.90
25342;DHT22;13298;48.792;9.154;2022-12-08T06:49:47;-1.60;99.90
25342;DHT22;13298;48.792;9.154;2022-12-08T06:52:13;-1.60;99.90
25342;DHT22;13298;48.792;9.154;2022-12-08T06:54:39;-1.60;99.90
25342;DHT22;13298;48.792;9.154;2022-12-08T06:57:05;-1.60;99.90
25342;DHT22;13298;48.792;9.154;2022-12-08T06:59:31;-1.60;99.90
25342;DHT22;13298;48.792;9.154;2022-12-08T07:01:56;-1.60;99.90
25342;DHT22;13298;48.792;9.154;2022-12-08T07:04:22;-1.60;99.90
25342;DHT22;13298;48.792;9.154;2022-12-08T07:06:48;-1.60;99.90
25342;DHT22;13298;48.792;9.154;2022-12-08T07:09:13;-1.60;99.90
25342;DHT22;13298;48.792;9.154;2022-12-08T07:11:39;-1.60;99.90
25342;DHT22;13298;48.792;9.154;2022-12-08T07:14:05;-1.60;99.90
25342;DHT22;13298;48.792;9.154;2022-12-08T07:16:31;-1.60;99.90
25342;DHT22;13298;48.792;9.154;2022-12-08T07:18:56;-1.60;99.90
25342;DHT22;13298;48.792;9.154;2022-12-08T07:21:22;-1.60;99.90
25342;DHT22;13298;48.792;9.154;2022-12-08T07:23:48;-1.50;99.90
25342;DHT22;13298;48.792;9.154;2022-12-08T07:26:14;-1.50;99.90
25342;DHT22;13298;48.792;9.154;2022-12-08T07:28:40;-1.50;99.90
25342;DHT22;13298;48.792;9.154;2022-12-08T07:31:06;-1.50;99.90
25342;DHT22;13298;48.792;9.154;2022-12-08T07:33:33;-1.50;99.90
25342;DHT22;13298;48.792;9.154;2022-12-08T07:36:01;-1.50;99.90
25342;DHT22;13298;48.792;9.154;2022-12-08T07:38:29;-1.40;99.90
25342;DHT22;13298;48.792;9.154;2022-12-08T07:40:55;-1.40;99.90
25342;DHT22;13298;48.792;9.154;2022-12-08T07:43:21;-1.40;99.90
25342;DHT22;13298;48.792;9.154;2022-12-08T07:45:48;-1.30;99.90
25342;DHT22;13298;48.792;9.154;2022-12-08T07:48:14;-1.30;99.90
25342;DHT22;13298;48.792;9.154;2022-12-08T07:50:40;-1.20;99.90
25342;DHT22;13298;48.792;9.154;2022-12-08T07:53:05;-1.20;99.90
25342;DHT22;13298;48.792;9.154;2022-12-08T07:55:31;-1.20;99.90
25342;DHT22;13298;48.792;9.154;2022-12-08T07:57:57;-1.20;99.90
25342;DHT22;13298;48.792;9.154;2022-12-08T08:00:22;-1.10;99.90
25342;DHT22;13298;48.792;9.154;2022-12-08T08:02:48;-1.10;99.90
25342;DHT22;13298;48.792;9.154;2022-12-08T08:05:14;-1.00;99.90
25342;DHT22;13298;48.792;9.154;2022-12-08T08:07:40;-0.90;99.90
25342;DHT22;13298;48.792;9.154;2022-12-08T08:10:11;-0.90;99.90
25342;DHT22;13298;48.792;9.154;2022-12-08T08:12:36;-0.80;99.90
25342;DHT22;13298;48.792;9.154;2022-12-08T08:15:04;-0.80;99.90
25342;DHT22;13298;48.792;9.154;2022-12-08T08:17:31;-0.70;99.90
25342;DHT22;13298;48.792;9.154;2022-12-08T08:19:57;-0.70;99.90
25342;DHT22;13298;48.792;9.154;2022-12-08T08:22:24;-0.70;99.90
25342;DHT22;13298;48.792;9.154;2022-12-08T08:24:50;-0.60;99.90
25342;DHT22;13298;48.792;9.154;2022-12-08T08:27:16;-0.60;99.90
25342;DHT22;13298;48.792;9.154;2022-12-08T08:29:41;-0.50;99.90
25342;DHT22;13298;48.792;9.154;2022-12-08T08:32:07;-0.50;99.90
25342;DHT22;13298;48.792;9.154;2022-12-08T08:34:32;-0.40;99.90
25342;DHT22;13298;48.792;9.154;2022-12-08T08:36:58;-0.40;99.90
25342;DHT22;13298;48.792;9.154;2022-12-08T08:39:24;-0.30;99.90
25342;DHT22;13298;48.792;9.154;2022-12-08T08:41:49;-0.30;99.90
25342;DHT22;13298;48.792;9.154;2022-12-08T08:44:15;-0.20;99.90
25342;DHT22;13298;48.792;9.154;2022-12-08T08:46:41;-0.20;99.90
25342;DHT22;13298;48.792;9.154;2022-12-08T08:49:06;-0.20;99.90
25342;DHT22;13298;48.792;9.154;2022-12-08T08:51:32;-0.10;99.90
25342;DHT22;13298;48.792;9.154;2022-12-08T08:53:58;-0.10;99.90
25342;DHT22;13298;48.792;9.154;2022-12-08T08:56:23;0.00;99.90
25342;DHT22;13298;48.792;9.154;2022-12-08T08:58:49;0.10;99.90
25342;DHT22;13298;48.792;9.154;2022-12-08T09:01:20;0.00;99.90
25342;DHT22;13298;48.792;9.154;2022-12-08T09:03:48;0.10;99.90
25342;DHT22;13298;48.792;9.154;2022-12-08T09:06:13;0.10;99.90
25342;DHT22;13298;48.792;9.154;2022-12-08T09:08:39;0.20;99.90
25342;DHT22;13298;48.792;9.154;2022-12-08T09:11:05;0.20;99.90
25342;DHT22;13298;48.792;9.154;2022-12-08T09:13:32;0.30;99.90
25342;DHT22;13298;48.792;9.154;2022-12-08T09:15:59;0.30;99.90
25342;DHT22;13298;48.792;9.154;2022-12-08T09:18:26;0.30;99.90
25342;DHT22;13298;48.792;9.154;2022-12-08T09:20:52;0.40;99.90
25342;DHT22;13298;48.792;9.154;2022-12-08T09:23:18;0.40;99.90
25342;DHT22;13298;48.792;9.154;2022-12-08T09:25:44;0.50;99.90
25342;DHT22;13298;48.792;9.154;2022-12-08T09:28:10;0.50;99.90
25342;DHT22;13298;48.792;9.154;2022-12-08T09:30:36;0.50;99.90
25342;DHT22;13298;48.792;9.154;2022-12-08T09:33:01;0.60;99.90
25342;DHT22;13298;48.792;9.154;2022-12-08T09:35:27;0.60;99.90
25342;DHT22;13298;48.792;9.154;2022-12-08T09:37:53;0.60;99.90
25342;DHT22;13298;48.792;9.154;2022-12-08T09:40:19;0.70;99.90
25342;DHT22;13298;48.792;9.154;2022-12-08T09:45:16;0.80;99.90
25342;DHT22;13298;48.792;9.154;2022-12-08T09:47:44;0.80;99.90
25342;DHT22;13298;48.792;9.154;2022-12-08T09:50:15;0.90;99.90
25342;DHT22;13298;48.792;9.154;2022-12-08T09:52:46;0.90;99.90
25342;DHT22;13298;48.792;9.154;2022-12-08T09:55:23;1.00;99.90
25342;DHT22;13298;48.792;9.154;2022-12-08T09:57:54;1.00;99.90
25342;DHT22;13298;48.792;9.154;2022-12-08T10:00:24;1.10;99.90
25342;DHT22;13298;48.792;9.154;2022-12-08T10:02:50;1.10;99.90
25342;DHT22;13298;48.792;9.154;2022-12-08T10:05:15;1.10;99.90
25342;DHT22;13298;48.792;9.154;2022-12-08T10:07:46;1.20;99.90
25342;DHT22;13298;48.792;9.154;2022-12-08T10:10:32;1.20;99.90
25342;DHT22;13298;48.792;9.154;2022-12-08T10:15:39;1.30;99.90
25342;DHT22;13298;48.792;9.154;2022-12-08T10:18:10;1.30;99.90
25342;DHT22;13298;48.792;9.154;2022-12-08T10:20:39;1.30;99.90
25342;DHT22;13298;48.792;9.154;2022-12-08T10:26:11;1.50;99.90
25342;DHT22;13298;48.792;9.154;2022-12-08T10:28:38;1.60;99.90
25342;DHT22;13298;48.792;9.154;2022-12-08T10:31:04;1.70;99.90
25342;DHT22;13298;48.792;9.154;2022-12-08T10:33:30;1.80;99.90
25342;DHT22;13298;48.792;9.154;2022-12-08T10:35:58;2.00;99.90
25342;DHT22;13298;48.792;9.154;2022-12-08T10:38:28;2.30;99.90
25342;DHT22;13298;48.792;9.154;2022-12-08T10:40:58;2.50;99.90
25342;DHT22;13298;48.792;9.154;2022-12-08T10:43:28;2.80;99.90
25342;DHT22;13298;48.792;9.154;2022-12-08T10:45:54;3.10;99.90
25342;DHT22;13298;48.792;9.154;2022-12-08T10:48:26;3.40;99.90
25342;DHT22;13298;48.792;9.154;2022-12-08T10:50:56;3.50;99.90
25342;DHT22;13298;48.792;9.154;2022-12-08T10:56:06;3.90;99.90
25342;DHT22;13298;48.792;9.154;2022-12-08T10:58:37;4.10;99.90
25342;DHT22;13298;48.792;9.154;2022-12-08T11:01:32;4.20;99.90
25342;DHT22;13298;48.792;9.154;2022-12-08T11:04:02;4.40;99.90
25342;DHT22;13298;48.792;9.154;2022-12-08T11:14:18;4.60;99.90
25342;DHT22;13298;48.792;9.154;2022-12-08T11:16:47;4.70;99.90
25342;DHT22;13298;48.792;9.154;2022-12-08T11:19:14;4.70;99.90
25342;DHT22;13298;48.792;9.154;2022-12-08T11:21:41;4.70;99.90
25342;DHT22;13298;48.792;9.154;2022-12-08T11:24:17;4.70;99.90
25342;DHT22;13298;48.792;9.154;2022-12-08T11:26:50;4.80;99.90
25342;DHT22;13298;48.792;9.154;2022-12-08T11:29:27;4.80;99.90
25342;DHT22;13298;48.792;9.154;2022-12-08T11:31:56;4.80;99.90
25342;DHT22;13298;48.792;9.154;2022-12-08T11:34:30;4.80;99.90
25342;DHT22;13298;48.792;9.154;2022-12-08T11:36:58;4.80;99.90
25342;DHT22;13298;48.792;9.154;2022-12-08T11:39:27;4.90;99.90
25342;DHT22;13298;48.792;9.154;2022-12-08T11:41:55;4.90;99.90
25342;DHT22;13298;48.792;9.154;2022-12-08T11:47:16;5.10;99.90
25342;DHT22;13298;48.792;9.154;2022-12-08T11:49:43;5.10;99.90
25342;DHT22;13298;48.792;9.154;2022-12-08T11:57:41;5.10;99.90
25342;DHT22;13298;48.792;9.154;2022-12-08T12:00:08;5.10;99.90
25342;DHT22;13298;48.792;9.154;2022-12-08T12:02:36;5.10;99.90
25342;DHT22;13298;48.792;9.154;2022-12-08T12:05:08;5.10;99.90
25342;DHT22;13298;48.792;9.154;2022-12-08T12:18:53;4.90;99.90
25342;DHT22;13298;48.792;9.154;2022-12-08T12:21:32;4.90;99.90
25342;DHT22;13298;48.792;9.154;2022-12-08T12:24:02;4.90;99.90
25342;DHT22;13298;48.792;9.154;2022-12-08T12:26:30;4.90;99.90
25342;DHT22;13298;48.792;9.154;2022-12-08T12:29:02;4.80;99.90
25342;DHT22;13298;48.792;9.154;2022-12-08T12:31:34;4.90;99.90
25342;DHT22;13298;48.792;9.154;2022-12-08T12:34:05;4.90;99.90
25342;DHT22;13298;48.792;9.154;2022-12-08T12:40:00;5.00;99.90
25342;DHT22;13298;48.792;9.154;2022-12-08T12:42:46;5.00;99.90
25342;DHT22;13298;48.792;9.154;2022-12-08T12:50:12;5.00;99.90
25342;DHT22;13298;48.792;9.154;2022-12-08T12:52:39;4.90;99.90
25342;DHT22;13298;48.792;9.154;2022-12-08T12:57:53;4.90;99.90
25342;DHT22;13298;48.792;9.154;2022-12-08T13:00:21;4.90;99.90
25342;DHT22;13298;48.792;9.154;2022-12-08T13:02:48;4.80;99.90
25342;DHT22;13298;48.792;9.154;2022-12-08T13:07:49;4.80;99.90
25342;DHT22;13298;48.792;9.154;2022-12-08T13:10:24;4.80;99.90
25342;DHT22;13298;48.792;9.154;2022-12-08T13:13:05;4.70;99.90
25342;DHT22;13298;48.792;9.154;2022-12-08T13:16:15;4.60;99.90
25342;DHT22;13298;48.792;9.154;2022-12-08T13:18:34;4.60;99.90
25342;DHT22;13298;48.792;9.154;2022-12-08T13:28:32;4.10;99.90
25342;DHT22;13298;48.792;9.154;2022-12-08T13:30:58;4.00;99.90
25342;DHT22;13298;48.792;9.154;2022-12-08T13:33:28;4.00;99.90
25342;DHT22;13298;48.792;9.154;2022-12-08T13:38:55;3.90;99.90
25342;DHT22;13298;48.792;9.154;2022-12-08T13:41:21;3.90;99.90
25342;DHT22;13298;48.792;9.154;2022-12-08T13:44:09;3.80;99.90
25342;DHT22;13298;48.792;9.154;2022-12-08T13:46:44;3.70;99.90
25342;DHT22;13298;48.792;9.154;2022-12-08T13:49:15;3.70;99.90
25342;DHT22;13298;48.792;9.154;2022-12-08T13:51:44;3.60;99.90
25342;DHT22;13298;48.792;9.154;2022-12-08T13:54:17;3.60;99.90
25342;DHT22;13298;48.792;9.154;2022-12-08T13:56:45;3.60;99.90
25342;DHT22;13298;48.792;9.154;2022-12-08T14:01:43;3.50;99.90
25342;DHT22;13298;48.792;9.154;2022-12-08T14:04:17;3.50;99.90
25342;DHT22;13298;48.792;9.154;2022-12-08T14:06:44;3.50;99.90
25342;DHT22;13298;48.792;9.154;2022-12-08T14:09:21;3.40;99.90
25342;DHT22;13298;48.792;9.154;2022-12-08T14:11:50;3.40;99.90
25342;DHT22;13298;48.792;9.154;2022-12-08T14:14:29;3.40;99.90
25342;DHT22;13298;48.792;9.154;2022-12-08T14:17:00;3.40;99.90
25342;DHT22;13298;48.792;9.154;2022-12-08T14:19:28;3.40;99.90
25342;DHT22;13298;48.792;9.154;2022-12-08T14:24:33;3.40;99.90
25342;DHT22;13298;48.792;9.154;2022-12-08T14:26:59;3.40;99.90
25342;DHT22;13298;48.792;9.154;2022-12-08T14:32:19;3.40;99.90
25342;DHT22;13298;48.792;9.154;2022-12-08T14:37:40;3.40;99.90
25342;DHT22;13298;48.792;9.154;2022-12-08T14:42:49;3.40;99.90
25342;DHT22;13298;48.792;9.154;2022-12-08T14:45:19;3.40;99.90
25342;DHT22;13298;48.792;9.154;2022-12-08T14:47:45;3.40;99.90
25342;DHT22;13298;48.792;9.154;2022-12-08T14:53:00;3.30;99.90
25342;DHT22;13298;48.792;9.154;2022-12-08T14:55:26;3.30;99.90
25342;DHT22;13298;48.792;9.154;2022-12-08T14:57:53;3.20;99.90
25342;DHT22;13298;48.792;9.154;2022-12-08T15:00:19;3.20;99.90
25342;DHT22;13298;48.792;9.154;2022-12-08T15:02:46;3.20;99.90
25342;DHT22;13298;48.792;9.154;2022-12-08T15:05:16;3.20;99.90
25342;DHT22;13298;48.792;9.154;2022-12-08T15:07:44;3.20;99.90
25342;DHT22;13298;48.792;9.154;2022-12-08T15:12:39;3.20;99.90
25342;DHT22;13298;48.792;9.154;2022-12-08T15:22:51;3.10;99.90
25342;DHT22;13298;48.792;9.154;2022-12-08T15:25:17;3.10;99.90
25342;DHT22;13298;48.792;9.154;2022-12-08T15:27:43;3.10;99.90
25342;DHT22;13298;48.792;9.154;2022-12-08T15:30:15;3.10;99.90
25342;DHT22;13298;48.792;9.154;2022-12-08T15:32:42;3.10;99.90
25342;DHT22;13298;48.792;9.154;2022-12-08T15:35:11;3.00;99.90
25342;DHT22;13298;48.792;9.154;2022-12-08T15:37:38;3.00;99.90
25342;DHT22;13298;48.792;9.154;2022-12-08T15:40:04;3.00;99.90
25342;DHT22;13298;48.792;9.154;2022-12-08T15:42:30;3.00;99.90
25342;DHT22;13298;48.792;9.154;2022-12-08T15:44:56;2.90;99.90
25342;DHT22;13298;48.792;9.154;2022-12-08T15:47:22;3.00;99.90
25342;DHT22;13298;48.792;9.154;2022-12-08T15:49:48;2.90;99.90
25342;DHT22;13298;48.792;9.154;2022-12-08T15:52:22;2.90;99.90
25342;DHT22;13298;48.792;9.154;2022-12-08T15:54:48;2.90;99.90
25342;DHT22;13298;48.792;9.154;2022-12-08T15:57:18;2.90;99.90
25342;DHT22;13298;48.792;9.154;2022-12-08T15:59:48;2.90;99.90
25342;DHT22;13298;48.792;9.154;2022-12-08T16:02:14;2.90;99.90
25342;DHT22;13298;48.792;9.154;2022-12-08T16:04:40;2.80;99.90
25342;DHT22;13298;48.792;9.154;2022-12-08T16:07:06;2.80;99.90
25342;DHT22;13298;48.792;9.154;2022-12-08T16:09:40;2.80;99.90
25342;DHT22;13298;48.792;9.154;2022-12-08T16:12:13;2.80;99.90
25342;DHT22;13298;48.792;9.154;2022-12-08T16:14:59;2.80;99.90
25342;DHT22;13298;48.792;9.154;2022-12-08T16:17:25;2.80;99.90
25342;DHT22;13298;48.792;9.154;2022-12-08T16:19:51;2.80;99.90
25342;DHT22;13298;48.792;9.154;2022-12-08T16:22:18;2.80;99.90
25342;DHT22;13298;48.792;9.154;2022-12-08T16:24:45;2.80;99.90
25342;DHT22;13298;48.792;9.154;2022-12-08T16:27:15;2.80;99.90
25342;DHT22;13298;48.792;9.154;2022-12-08T16:29:45;2.70;99.90
25342;DHT22;13298;48.792;9.154;2022-12-08T16:32:13;2.70;99.90
25342;DHT22;13298;48.792;9.154;2022-12-08T16:34:39;2.70;99.90
25342;DHT22;13298;48.792;9.154;2022-12-08T16:37:04;2.70;99.90
25342;DHT22;13298;48.792;9.154;2022-12-08T16:39:30;2.70;99.90
25342;DHT22;13298;48.792;9.154;2022-12-08T16:41:56;2.70;99.90
25342;DHT22;13298;48.792;9.154;2022-12-08T16:44:40;2.70;99.90
25342;DHT22;13298;48.792;9.154;2022-12-08T16:47:08;2.70;99.90
25342;DHT22;13298;48.792;9.154;2022-12-08T16:49:37;2.70;99.90
25342;DHT22;13298;48.792;9.154;2022-12-08T16:52:03;2.60;99.90
25342;DHT22;13298;48.792;9.154;2022-12-08T16:54:29;2.60;99.90
25342;DHT22;13298;48.792;9.154;2022-12-08T16:56:55;2.60;99.90
25342;DHT22;13298;48.792;9.154;2022-12-08T16:59:21;2.60;99.90
25342;DHT22;13298;48.792;9.154;2022-12-08T17:01:46;2.60;99.90
25342;DHT22;13298;48.792;9.154;2022-12-08T17:04:12;2.60;99.90
25342;DHT22;13298;48.792;9.154;2022-12-08T17:06:38;2.60;99.90
25342;DHT22;13298;48.792;9.154;2022-12-08T17:09:03;2.60;99.90
25342;DHT22;13298;48.792;9.154;2022-12-08T17:11:29;2.60;99.90
25342;DHT22;13298;48.792;9.154;2022-12-08T17:13:57;2.60;99.90
25342;DHT22;13298;48.792;9.154;2022-12-08T17:16:23;2.60;99.90
25342;DHT22;13298;48.792;9.154;2022-12-08T17:18:49;2.60;99.90
25342;DHT22;13298;48.792;9.154;2022-12-08T17:21:15;2.60;99.90
25342;DHT22;13298;48.792;9.154;2022-12-08T17:23:42;2.60;99.90
25342;DHT22;13298;48.792;9.154;2022-12-08T17:26:07;2.60;99.90
25342;DHT22;13298;48.792;9.154;2022-12-08T17:28:33;2.60;99.90
25342;DHT22;13298;48.792;9.154;2022-12-08T17:30:59;2.60;99.90
25342;DHT22;13298;48.792;9.154;2022-12-08T17:33:25;2.60;99.90
25342;DHT22;13298;48.792;9.154;2022-12-08T17:35:52;2.50;99.90
25342;DHT22;13298;48.792;9.154;2022-12-08T17:38:19;2.50;99.90
25342;DHT22;13298;48.792;9.154;2022-12-08T17:40:45;2.50;99.90